createdAt,value
2023-02-21T00:02:16.818Z,3.80
2023-02-21T00:05:03.614Z,4.50
2023-02-21T00:07:52.573Z,4.40
2023-02-21T00:10:39.142Z,4.10
2023-02-21T00:13:26.415Z,3.00
2023-02-21T00:16:13.665Z,3.60
2023-02-21T00:19:00.421Z,3.30
2023-02-21T00:21:48.180Z,3.10
2023-02-21T00:24:37.939Z,3.10
2023-02-21T00:27:25.143Z,3.70
2023-02-21T00:30:12.271Z,2.90
2023-02-21T00:33:00.067Z,1.80
2023-02-21T00:35:46.803Z,2.40
2023-02-21T00:41:20.732Z,2.70
2023-02-21T00:44:07.963Z,2.70
2023-02-21T00:46:55.305Z,1.90
2023-02-21T00:49:41.908Z,3.90
2023-02-21T00:52:28.795Z,2.50
2023-02-21T00:55:15.607Z,2.90
2023-02-21T01:05:40.858Z,2.20
2023-02-21T01:08:27.564Z,2.40
2023-02-21T01:11:15.136Z,2.10
2023-02-21T01:14:03.578Z,1.70
2023-02-21T01:16:54.121Z,2.60
2023-02-21T01:19:45.974Z,1.70
2023-02-21T01:22:32.704Z,2.60
2023-02-21T01:25:19.796Z,2.30
2023-02-21T01:28:06.613Z,2.10
2023-02-21T01:30:53.421Z,3.90
2023-02-21T01:33:40.035Z,2.20
2023-02-21T01:36:28.792Z,1.70
2023-02-21T01:39:15.802Z,1.50
2023-02-21T01:42:02.605Z,1.80
2023-02-21T01:44:59.890Z,1.40
2023-02-21T01:47:47.961Z,2.20
2023-02-21T01:50:42.495Z,1.20
2023-02-21T01:53:34.217Z,3.00
2023-02-21T01:56:22.259Z,2.00
2023-02-21T01:59:11.423Z,2.10
2023-02-21T02:02:10.471Z,2.70
2023-02-21T02:04:59.180Z,2.40
2023-02-21T02:07:45.997Z,2.70
2023-02-21T02:10:33.343Z,4.50
2023-02-21T02:13:10.388Z,2.50
2023-02-21T02:16:11.244Z,1.40
2023-02-21T02:18:58.869Z,2.10
2023-02-21T02:21:56.316Z,2.10
2023-02-21T02:24:30.224Z,1.90
2023-02-21T02:27:20.087Z,1.70
2023-02-21T02:30:31.119Z,1.80
2023-02-21T02:33:05.092Z,1.50
2023-02-21T02:35:39.596Z,3.80
2023-02-21T02:38:16.952Z,2.00
2023-02-21T02:41:09.971Z,1.80
2023-02-21T02:43:51.253Z,2.10
2023-02-21T02:46:28.285Z,3.40
2023-02-21T02:49:01.160Z,2.40
2023-02-21T02:51:32.607Z,2.70
2023-02-21T02:54:01.659Z,2.40
2023-02-21T02:56:30.321Z,2.20
2023-02-21T02:59:33.735Z,4.40
2023-02-21T03:02:11.433Z,1.40
2023-02-21T03:05:03.663Z,2.40
2023-02-21T03:07:38.492Z,1.40
2023-02-21T03:10:18.132Z,2.40
2023-02-21T03:13:00.944Z,3.00
2023-02-21T03:15:46.560Z,1.50
2023-02-21T03:18:32.741Z,2.90
2023-02-21T03:21:04.120Z,1.90
2023-02-21T03:23:35.832Z,5.40
2023-02-21T03:26:08.841Z,2.80
2023-02-21T03:28:37.895Z,2.30
2023-02-21T03:31:09.090Z,1.60
2023-02-21T03:33:37.684Z,2.10
2023-02-21T03:36:09.930Z,3.10
2023-02-21T03:38:39.013Z,2.20
2023-02-21T03:41:09.896Z,3.50
2023-02-21T03:43:38.336Z,1.90
2023-02-21T03:46:06.497Z,2.80
2023-02-21T03:48:35.567Z,3.20
2023-02-21T03:51:20.250Z,2.30
2023-02-21T03:53:48.732Z,2.10
2023-02-21T03:56:18.135Z,1.50
2023-02-21T03:59:03.551Z,2.00
2023-02-21T04:01:31.786Z,3.10
2023-02-21T04:04:00.475Z,3.50
2023-02-21T04:06:28.549Z,3.00
2023-02-21T04:08:57.059Z,2.90
2023-02-21T04:11:27.252Z,2.50
2023-02-21T04:13:55.320Z,1.80
2023-02-21T04:16:23.880Z,5.80
2023-02-21T04:18:53.818Z,5.10
2023-02-21T04:21:22.094Z,3.50
2023-02-21T04:23:51.700Z,4.60
2023-02-21T04:26:20.001Z,4.40
2023-02-21T04:28:52.773Z,3.30
2023-02-21T04:31:20.960Z,3.90
2023-02-21T04:33:54.933Z,4.00
2023-02-21T04:36:31.761Z,3.40
2023-02-21T04:39:00.611Z,3.60
2023-02-21T04:41:28.781Z,5.60
2023-02-21T04:43:57.062Z,3.80
2023-02-21T04:46:25.229Z,4.70
2023-02-21T04:48:54.120Z,4.70
2023-02-21T04:51:24.750Z,6.70
2023-02-21T04:53:54.668Z,6.90
2023-02-21T04:56:25.577Z,6.00
2023-02-21T04:58:53.903Z,5.20
2023-02-21T05:01:22.959Z,3.70
2023-02-21T05:03:51.373Z,5.20
2023-02-21T05:06:24.802Z,5.50
2023-02-21T05:08:53.228Z,5.70
2023-02-21T05:11:22.887Z,7.20
2023-02-21T05:13:52.132Z,4.20
2023-02-21T05:16:21.260Z,3.50
2023-02-21T05:18:49.709Z,6.50
2023-02-21T05:21:19.541Z,4.70
2023-02-21T05:23:57.235Z,4.60
2023-02-21T05:26:30.097Z,3.30
2023-02-21T05:28:58.173Z,5.80
2023-02-21T05:31:26.147Z,4.30
2023-02-21T05:33:54.624Z,5.70
2023-02-21T05:36:25.592Z,9.80
2023-02-21T05:38:55.764Z,4.80
2023-02-21T05:41:24.292Z,4.40
2023-02-21T05:43:53.356Z,6.10
2023-02-21T05:46:31.474Z,4.20
2023-02-21T05:49:01.767Z,5.00
2023-02-21T05:51:40.205Z,5.70
2023-02-21T05:54:10.224Z,5.30
2023-02-21T05:56:42.789Z,10.10
2023-02-21T05:59:12.347Z,7.20
2023-02-21T06:01:40.991Z,7.80
2023-02-21T06:04:09.259Z,9.10
2023-02-21T06:06:38.122Z,5.90
2023-02-21T06:09:07.051Z,8.60
2023-02-21T06:11:37.879Z,11.30
2023-02-21T06:14:09.675Z,7.60
2023-02-21T06:16:39.074Z,8.90
2023-02-21T06:19:09.241Z,10.50
2023-02-21T06:21:37.320Z,8.90
2023-02-21T06:24:05.622Z,5.70
2023-02-21T06:26:33.981Z,9.10
2023-02-21T06:29:01.978Z,11.00
2023-02-21T06:31:30.037Z,7.90
2023-02-21T06:33:58.809Z,8.10
2023-02-21T06:36:28.750Z,12.30
2023-02-21T06:38:57.953Z,10.20
2023-02-21T06:41:28.936Z,10.30
2023-02-21T06:43:58.723Z,7.90
2023-02-21T06:46:29.342Z,7.40
2023-02-21T06:48:58.505Z,6.90
2023-02-21T06:51:29.978Z,6.80
2023-02-21T06:53:59.300Z,13.80
2023-02-21T06:56:27.946Z,12.60
2023-02-21T06:58:57.345Z,7.40
2023-02-21T07:01:30.199Z,8.20
2023-02-21T07:03:59.124Z,7.50
2023-02-21T07:06:29.610Z,7.20
2023-02-21T07:08:58.357Z,7.90
2023-02-21T07:11:34.790Z,11.00
2023-02-21T07:14:03.308Z,6.70
2023-02-21T07:16:31.344Z,10.30
2023-02-21T07:18:59.722Z,6.30
2023-02-21T07:21:31.003Z,8.90
2023-02-21T07:23:59.562Z,6.90
2023-02-21T07:26:27.649Z,6.30
2023-02-21T07:28:56.014Z,9.50
2023-02-21T07:31:24.296Z,7.00
2023-02-21T07:33:53.311Z,10.10
2023-02-21T07:36:23.091Z,9.70
2023-02-21T07:38:51.149Z,10.40
2023-02-21T07:41:25.306Z,11.40
2023-02-21T07:43:55.388Z,6.60
2023-02-21T07:46:27.712Z,7.90
2023-02-21T07:48:56.788Z,9.10
2023-02-21T07:51:28.746Z,7.70
2023-02-21T07:53:57.607Z,5.80
2023-02-21T07:56:26.018Z,8.60
2023-02-21T07:58:54.157Z,8.00
2023-02-21T08:01:24.520Z,13.40
2023-02-21T08:03:52.755Z,12.20
2023-02-21T08:06:20.891Z,10.10
2023-02-21T08:08:49.138Z,13.70
2023-02-21T08:11:17.362Z,10.70
2023-02-21T08:13:45.650Z,11.00
2023-02-21T08:16:14.417Z,7.40
2023-02-21T08:18:43.041Z,6.00
2023-02-21T08:21:11.509Z,8.20
2023-02-21T08:23:39.507Z,6.30
2023-02-21T08:26:07.643Z,8.30
2023-02-21T08:28:37.656Z,5.30
2023-02-21T08:31:07.231Z,6.60
2023-02-21T08:33:35.229Z,10.20
2023-02-21T08:36:03.411Z,5.40
2023-02-21T08:38:31.581Z,8.30
2023-02-21T08:40:59.851Z,6.70
2023-02-21T08:43:29.055Z,7.30
2023-02-21T08:45:57.129Z,11.10
2023-02-21T08:48:25.499Z,9.90
2023-02-21T08:50:54.212Z,11.20
2023-02-21T08:53:22.260Z,8.50
2023-02-21T08:55:50.224Z,12.90
2023-02-21T08:58:18.296Z,11.10
2023-02-21T09:00:46.596Z,7.40
2023-02-21T09:03:14.751Z,8.70
2023-02-21T09:05:42.731Z,5.60
2023-02-21T09:08:11.607Z,7.80
2023-02-21T09:10:47.812Z,10.00
2023-02-21T09:13:16.074Z,9.80
2023-02-21T09:15:44.021Z,8.30
2023-02-21T09:18:13.107Z,9.30
2023-02-21T09:20:42.541Z,7.90
2023-02-21T09:23:10.787Z,12.30
2023-02-21T09:25:38.800Z,11.90
2023-02-21T09:28:07.143Z,6.40
2023-02-21T09:30:35.255Z,8.10
2023-02-21T09:33:03.376Z,7.40
2023-02-21T09:35:31.348Z,9.50
2023-02-21T09:38:00.887Z,9.20
2023-02-21T09:40:43.884Z,8.90
2023-02-21T09:43:15.987Z,12.50
2023-02-21T09:45:44.890Z,11.40
2023-02-21T09:48:19.793Z,10.80
2023-02-21T09:51:02.789Z,18.80
2023-02-21T09:53:34.311Z,17.90
2023-02-21T09:56:31.132Z,16.00
2023-02-21T09:58:59.157Z,11.30
2023-02-21T10:01:45.361Z,10.30
2023-02-21T10:04:38.854Z,8.10
2023-02-21T10:07:22.751Z,10.20
2023-02-21T10:10:06.878Z,7.00
2023-02-21T10:12:44.875Z,11.50
2023-02-21T10:15:30.697Z,8.50
2023-02-21T10:18:21.716Z,13.30
2023-02-21T10:21:01.767Z,12.30
2023-02-21T10:23:40.775Z,11.40
2023-02-21T10:26:14.413Z,8.00
2023-02-21T10:28:42.815Z,11.70
2023-02-21T10:31:26.169Z,25.10
2023-02-21T10:33:54.257Z,8.70
2023-02-21T10:36:23.769Z,12.30
2023-02-21T10:39:06.683Z,6.90
2023-02-21T10:41:39.576Z,7.10
2023-02-21T10:44:20.129Z,10.30
2023-02-21T10:46:58.849Z,9.50
2023-02-21T10:49:51.495Z,10.10
2023-02-21T10:52:22.948Z,9.90
2023-02-21T10:55:02.790Z,9.90
2023-02-21T10:57:33.754Z,6.70
2023-02-21T11:00:10.290Z,12.40
2023-02-21T11:05:13.515Z,9.80
2023-02-21T11:07:55.505Z,11.20
2023-02-21T11:10:36.309Z,16.40
2023-02-21T11:13:20.533Z,15.80
2023-02-21T11:15:50.077Z,24.60
2023-02-21T11:18:27.317Z,10.40
2023-02-21T11:20:55.593Z,14.00
2023-02-21T11:23:28.138Z,12.50
2023-02-21T11:26:05.148Z,11.10
2023-02-21T11:28:43.526Z,13.00
2023-02-21T11:31:34.433Z,12.40
2023-02-21T11:34:07.374Z,11.50
2023-02-21T11:36:45.160Z,8.00
2023-02-21T11:39:28.035Z,11.20
2023-02-21T11:41:59.249Z,10.10
2023-02-21T11:44:40.131Z,10.60
2023-02-21T11:47:16.999Z,10.30
2023-02-21T11:52:39.163Z,14.00
2023-02-21T11:55:18.922Z,13.50
2023-02-21T11:58:21.134Z,14.90
2023-02-21T12:01:05.799Z,19.80
2023-02-21T12:04:01.925Z,12.80
2023-02-21T12:06:44.738Z,10.20
2023-02-21T12:09:19.674Z,13.30
2023-02-21T12:12:33.430Z,11.80
2023-02-21T12:15:16.643Z,9.60
2023-02-21T12:18:02.132Z,8.40
2023-02-21T12:20:50.619Z,23.60
2023-02-21T12:23:38.303Z,7.30
2023-02-21T12:26:28.821Z,7.50
2023-02-21T12:29:21.547Z,9.80
2023-02-21T12:31:52.553Z,7.30
2023-02-21T12:34:36.241Z,7.50
2023-02-21T12:37:23.174Z,8.80
2023-02-21T12:40:03.848Z,9.60
2023-02-21T12:43:04.483Z,6.90
2023-02-21T12:45:32.409Z,7.40
2023-02-21T12:48:09.904Z,9.70
2023-02-21T12:50:43.373Z,7.30
2023-02-21T12:53:41.885Z,9.10
2023-02-21T12:56:19.249Z,11.90
2023-02-21T12:58:59.936Z,9.70
2023-02-21T13:01:34.558Z,7.60
2023-02-21T13:04:18.005Z,10.50
2023-02-21T13:07:07.793Z,8.80
2023-02-21T13:09:50.305Z,10.80
2023-02-21T13:12:42.006Z,19.10
2023-02-21T13:15:19.100Z,14.70
2023-02-21T13:18:21.274Z,10.10
2023-02-21T13:21:02.646Z,7.00
2023-02-21T13:24:27.543Z,11.70
2023-02-21T13:27:36.062Z,13.00
2023-02-21T13:30:26.126Z,12.50
2023-02-21T13:33:03.960Z,11.90
2023-02-21T13:35:40.211Z,13.40
2023-02-21T13:38:11.909Z,9.90
2023-02-21T13:40:53.664Z,13.20
2023-02-21T13:43:26.323Z,13.10
2023-02-21T13:45:54.987Z,10.70
2023-02-21T13:48:26.629Z,13.40
2023-02-21T13:50:57.150Z,10.40
2023-02-21T13:53:34.789Z,16.10
2023-02-21T13:56:09.055Z,15.60
2023-02-21T13:59:04.292Z,18.60
2023-02-21T14:01:32.402Z,23.10
2023-02-21T14:04:00.519Z,72.50
2023-02-21T14:06:33.772Z,16.50
2023-02-21T14:09:17.999Z,24.60
2023-02-21T14:11:52.234Z,54.70
2023-02-21T14:14:30.086Z,25.10
2023-02-21T14:17:08.033Z,37.00
2023-02-21T14:19:41.029Z,29.10
2023-02-21T14:22:26.699Z,36.40
2023-02-21T14:25:07.844Z,31.70
2023-02-21T14:27:38.206Z,20.70
2023-02-21T14:30:12.868Z,20.80
2023-02-21T14:32:46.704Z,17.90
2023-02-21T14:35:20.855Z,28.00
2023-02-21T14:38:00.527Z,18.60
2023-02-21T14:40:53.380Z,18.00
2023-02-21T14:43:38.038Z,23.10
2023-02-21T14:46:41.089Z,15.10
2023-02-21T14:49:21.148Z,16.90
2023-02-21T14:52:01.716Z,14.00
2023-02-21T14:54:58.013Z,12.40
2023-02-21T15:00:12.293Z,17.80
2023-02-21T15:02:56.662Z,30.50
2023-02-21T15:05:33.951Z,29.60
2023-02-21T15:08:13.066Z,55.60
2023-02-21T15:10:43.110Z,45.20
2023-02-21T15:13:23.040Z,24.40
2023-02-21T15:16:13.540Z,65.30
2023-02-21T15:18:57.998Z,50.50
2023-02-21T15:21:26.816Z,60.60
2023-02-21T15:24:16.176Z,127.20
2023-02-21T15:26:44.120Z,31.20
2023-02-21T15:29:18.712Z,39.10
2023-02-21T15:31:54.008Z,42.40
2023-02-21T15:34:28.024Z,19.80
2023-02-21T15:37:13.580Z,22.40
2023-02-21T15:39:46.635Z,18.40
2023-02-21T15:42:17.271Z,16.20
2023-02-21T15:44:54.276Z,14.80
2023-02-21T15:47:25.779Z,21.50
2023-02-21T15:50:10.076Z,25.20
2023-02-21T15:52:42.360Z,20.00
2023-02-21T15:55:19.596Z,15.70
2023-02-21T15:57:58.982Z,22.30
2023-02-21T16:00:36.521Z,21.10
2023-02-21T16:03:42.740Z,22.20
2023-02-21T16:06:18.933Z,19.70
2023-02-21T16:08:59.011Z,19.70
2023-02-21T16:11:43.807Z,18.90
2023-02-21T16:14:45.979Z,18.50
2023-02-21T16:17:20.503Z,16.40
2023-02-21T16:19:56.126Z,21.60
2023-02-21T16:22:26.072Z,15.80
2023-02-21T16:25:12.568Z,15.90
2023-02-21T16:30:25.855Z,15.10
2023-02-21T16:33:00.038Z,15.00
2023-02-21T16:35:28.512Z,13.80
2023-02-21T16:37:59.697Z,16.40
2023-02-21T16:40:31.019Z,20.70
2023-02-21T16:43:02.004Z,18.80
2023-02-21T16:45:31.750Z,25.20
2023-02-21T16:48:06.264Z,16.30
2023-02-21T16:50:38.063Z,17.80
2023-02-21T16:53:07.229Z,17.30
2023-02-21T16:55:35.194Z,17.10
2023-02-21T16:58:07.565Z,14.60
2023-02-21T17:00:35.532Z,15.40
2023-02-21T17:03:03.637Z,18.10
2023-02-21T17:05:32.327Z,21.50
2023-02-21T17:08:00.360Z,24.90
2023-02-21T17:10:28.847Z,21.60
2023-02-21T17:12:57.033Z,23.40
2023-02-21T17:15:25.500Z,19.50
2023-02-21T17:17:53.998Z,18.30
2023-02-21T17:20:23.421Z,19.60
2023-02-21T17:22:52.677Z,19.60
2023-02-21T17:25:22.750Z,21.80
2023-02-21T17:27:51.290Z,21.40
2023-02-21T17:30:23.096Z,23.90
2023-02-21T17:32:52.232Z,22.70
2023-02-21T17:35:22.733Z,28.30
2023-02-21T17:37:51.754Z,20.20
2023-02-21T17:40:21.804Z,16.60
2023-02-21T17:42:50.085Z,17.70
2023-02-21T17:45:20.706Z,14.60
2023-02-21T17:47:49.931Z,15.20
2023-02-21T17:50:19.469Z,12.80
2023-02-21T17:52:48.453Z,19.30
2023-02-21T17:55:20.904Z,21.30
2023-02-21T17:57:49.019Z,21.50
2023-02-21T18:00:24.823Z,18.80
2023-02-21T18:02:54.826Z,22.80
2023-02-21T18:05:23.179Z,24.80
2023-02-21T18:07:53.857Z,19.80
2023-02-21T18:10:24.026Z,18.80
2023-02-21T18:12:52.810Z,15.50
2023-02-21T18:15:27.490Z,15.30
2023-02-21T18:17:56.030Z,20.50
2023-02-21T18:20:25.019Z,26.70
2023-02-21T18:22:52.981Z,35.40
2023-02-21T18:25:22.799Z,30.30
2023-02-21T18:27:51.701Z,25.40
2023-02-21T18:30:20.281Z,18.80
2023-02-21T18:32:48.558Z,16.60
2023-02-21T18:35:18.199Z,20.10
2023-02-21T18:37:47.446Z,19.40
2023-02-21T18:40:17.770Z,18.90
2023-02-21T18:42:46.199Z,14.70
2023-02-21T18:45:14.759Z,19.40
2023-02-21T18:47:43.625Z,20.30
2023-02-21T18:50:11.902Z,21.30
2023-02-21T18:52:39.907Z,17.30
2023-02-21T18:55:08.285Z,19.50
2023-02-21T18:57:36.324Z,23.20
2023-02-21T19:00:07.437Z,14.80
2023-02-21T19:02:35.434Z,23.30
2023-02-21T19:05:03.607Z,17.90
2023-02-21T19:07:36.582Z,19.30
2023-02-21T19:10:05.481Z,17.90
2023-02-21T19:12:33.455Z,17.50
2023-02-21T19:15:01.664Z,18.10
2023-02-21T19:17:29.795Z,18.40
2023-02-21T19:19:58.486Z,17.90
2023-02-21T19:22:26.663Z,24.20
2023-02-21T19:24:54.861Z,21.80
2023-02-21T19:27:22.929Z,18.60
2023-02-21T19:29:51.892Z,18.90
2023-02-21T19:32:20.768Z,25.20
2023-02-21T19:34:50.365Z,22.30
2023-02-21T19:37:19.190Z,20.20
2023-02-21T19:39:50.565Z,18.10
2023-02-21T19:42:20.748Z,18.90
2023-02-21T19:44:50.247Z,19.60
2023-02-21T19:47:19.191Z,21.00
2023-02-21T19:49:48.437Z,25.10
2023-02-21T19:52:17.652Z,18.00
2023-02-21T19:54:47.424Z,18.00
2023-02-21T19:57:16.439Z,19.10
2023-02-21T19:59:44.822Z,18.80
2023-02-21T20:02:13.322Z,13.40
2023-02-21T20:04:45.488Z,19.00
2023-02-21T20:07:25.544Z,20.00
2023-02-21T20:09:54.104Z,19.00
2023-02-21T20:12:24.922Z,16.70
2023-02-21T20:14:56.212Z,16.90
2023-02-21T20:17:25.613Z,17.80
2023-02-21T20:19:54.278Z,22.00
2023-02-21T20:22:22.760Z,19.10
2023-02-21T20:24:50.822Z,19.20
2023-02-21T20:27:18.821Z,19.50
2023-02-21T20:29:47.009Z,19.80
2023-02-21T20:32:18.599Z,17.60
2023-02-21T20:34:46.933Z,21.20
2023-02-21T20:37:17.170Z,17.90
2023-02-21T20:39:45.347Z,15.60
2023-02-21T20:42:13.432Z,20.00
2023-02-21T20:44:43.340Z,19.30
2023-02-21T20:47:12.065Z,19.70
2023-02-21T20:49:43.447Z,19.80
2023-02-21T20:52:12.611Z,18.90
2023-02-21T20:54:41.644Z,17.20
2023-02-21T20:57:10.336Z,11.70
2023-02-21T20:59:39.628Z,16.00
2023-02-21T21:02:09.548Z,15.60
2023-02-21T21:04:40.762Z,16.60
2023-02-21T21:07:19.825Z,17.50
2023-02-21T21:09:49.970Z,14.10
2023-02-21T21:12:23.592Z,16.10
2023-02-21T21:14:55.459Z,16.10
2023-02-21T21:17:23.464Z,18.90
2023-02-21T21:19:53.461Z,19.30
2023-02-21T21:22:24.931Z,18.00
2023-02-21T21:24:53.935Z,17.70
2023-02-21T21:27:22.930Z,19.30
2023-02-21T21:29:52.229Z,15.00
2023-02-21T21:32:24.046Z,16.60
2023-02-21T21:34:55.190Z,14.90
2023-02-21T21:37:26.775Z,15.60
2023-02-21T21:39:56.160Z,16.30
2023-02-21T21:42:27.294Z,19.30
2023-02-21T21:44:57.152Z,17.30
2023-02-21T21:47:37.424Z,15.70
2023-02-21T21:50:05.933Z,16.40
2023-02-21T21:52:33.999Z,18.30
2023-02-21T21:55:02.687Z,23.20
2023-02-21T21:57:30.784Z,17.90
2023-02-21T21:59:58.840Z,17.00
2023-02-21T22:02:26.837Z,22.40
2023-02-21T22:04:55.172Z,19.00
2023-02-21T22:07:23.254Z,21.70
2023-02-21T22:09:51.521Z,16.20
2023-02-21T22:12:19.592Z,17.80
2023-02-21T22:14:50.139Z,18.20
2023-02-21T22:17:19.040Z,16.80
2023-02-21T22:19:47.806Z,22.70
2023-02-21T22:22:16.286Z,23.20
2023-02-21T22:24:44.453Z,16.70
2023-02-21T22:27:12.634Z,16.00
2023-02-21T22:29:41.026Z,18.20
2023-02-21T22:32:10.304Z,16.30
2023-02-21T22:34:38.682Z,18.40
2023-02-21T22:37:06.854Z,14.90
2023-02-21T22:39:34.821Z,14.40
2023-02-21T22:42:05.660Z,13.40
2023-02-21T22:44:33.646Z,12.60
2023-02-21T22:47:01.594Z,10.40
2023-02-21T22:49:31.000Z,13.20
2023-02-21T22:51:59.189Z,11.00
2023-02-21T22:54:27.553Z,14.50
2023-02-21T22:57:04.281Z,10.80
2023-02-21T23:02:04.069Z,12.90
2023-02-21T23:04:37.514Z,10.30
2023-02-21T23:07:06.353Z,10.70
2023-02-21T23:09:37.415Z,13.10
2023-02-21T23:12:06.196Z,10.00
2023-02-21T23:14:35.455Z,13.10
2023-02-21T23:17:03.985Z,11.40
2023-02-21T23:19:32.432Z,10.70
2023-02-21T23:22:00.597Z,11.20
2023-02-21T23:24:28.904Z,9.40
2023-02-21T23:26:56.787Z,12.70
2023-02-21T23:29:26.147Z,10.60
2023-02-21T23:31:58.344Z,14.50
2023-02-21T23:34:40.706Z,15.50
2023-02-21T23:37:12.727Z,15.80
2023-02-21T23:39:42.221Z,16.40
2023-02-21T23:42:11.305Z,16.20
2023-02-21T23:44:39.786Z,10.30
2023-02-21T23:47:07.944Z,11.60
2023-02-21T23:49:40.822Z,17.80
2023-02-21T23:52:09.823Z,20.00
2023-02-21T23:54:38.719Z,16.30
2023-02-21T23:57:07.800Z,16.40
2023-02-21T23:59:35.769Z,16.50
